Time;durP1;ratioP1;P1;durP2;ratioP2;P2;SDS_P1;SDS_P2;PMS_P1;PMS_P2;Temp;Humidity;BMP_temperature;BMP_pressure;BME280_temperature;BME280_humidity;BME280_pressure;Samples;Min_cycle;Max_cycle;Signal;HPM_P1;HPM_P2
2023/11/14 06:01:23;;;;;;;4.00;1.33;;;11.80;90.60;;;;;;4412677;23;20059;-80
2023/11/14 06:03:25;;;;;;;6.90;1.30;;;11.80;90.60;;;;;;4053932;29;20088;-79
2023/11/14 06:05:26;;;;;;;4.00;1.33;;;11.70;90.60;;;;;;4054058;29;20108;-80
2023/11/14 06:07:28;;;;;;;4.43;1.10;;;11.70;90.60;;;;;;4053916;29;20100;-80
2023/11/14 06:09:30;;;;;;;4.15;1.00;;;11.70;90.50;;;;;;4053663;29;20052;-79
2023/11/14 06:11:32;;;;;;;5.10;1.50;;;11.70;90.50;;;;;;4054015;29;20096;-79
2023/11/14 06:13:34;;;;;;;5.15;1.35;;;11.70;90.50;;;;;;4053993;29;20071;-80
2023/11/14 06:15:36;;;;;;;3.55;1.23;;;11.70;90.50;;;;;;4053786;29;20045;-80
2023/11/14 06:17:39;;;;;;;4.03;1.35;;;11.70;90.50;;;;;;4053737;29;20048;-80
2023/11/14 06:19:41;;;;;;;3.88;1.20;;;11.70;90.50;;;;;;4053881;29;20100;-78
2023/11/14 06:21:43;;;;;;;4.93;1.20;;;11.70;90.50;;;;;;4053782;29;20048;-77
2023/11/14 06:23:46;;;;;;;5.88;1.35;;;11.70;90.60;;;;;;4053786;29;20140;-81
2023/11/14 06:25:48;;;;;;;3.95;0.98;;;11.60;90.50;;;;;;4053766;29;20055;-79
2023/11/14 06:27:49;;;;;;;3.92;1.20;;;11.60;90.50;;;;;;4053781;29;20052;-78
2023/11/14 06:29:50;;;;;;;4.50;1.05;;;11.60;90.50;;;;;;4053623;29;20049;-79
2023/11/14 06:31:52;;;;;;;3.42;1.02;;;11.60;90.50;;;;;;4053704;29;20109;-79
2023/11/14 06:33:55;;;;;;;3.78;0.90;;;11.60;90.50;;;;;;4053523;29;20049;-79
2023/11/14 06:35:57;;;;;;;4.32;0.95;;;11.60;90.60;;;;;;4053544;29;20044;-80
2023/11/14 06:37:59;;;;;;;4.90;1.10;;;11.60;90.50;;;;;;4053329;29;20145;-79
2023/11/14 06:40:01;;;;;;;3.47;0.90;;;11.60;90.50;;;;;;4053646;29;20052;-78
2023/11/14 06:42:04;;;;;;;4.80;1.05;;;11.60;90.40;;;;;;4053798;29;20056;-77
2023/11/14 06:44:06;;;;;;;3.42;1.00;;;11.50;90.30;;;;;;4053019;29;20091;-80
2023/11/14 06:46:08;;;;;;;3.42;0.85;;;11.50;90.20;;;;;;4053560;29;20439;-78
2023/11/14 06:48:10;;;;;;;4.18;1.20;;;11.50;90.10;;;;;;4053506;29;20439;-81
2023/11/14 06:50:13;;;;;;;5.55;1.48;;;11.50;90.00;;;;;;4053484;29;20108;-80
2023/11/14 06:52:15;;;;;;;3.95;1.05;;;11.50;89.60;;;;;;4053394;29;20048;-80
2023/11/14 06:54:17;;;;;;;4.03;1.27;;;11.50;89.50;;;;;;4053462;29;20232;-79
2023/11/14 06:56:20;;;;;;;4.47;1.17;;;11.50;89.30;;;;;;4053280;29;20086;-80
2023/11/14 06:58:21;;;;;;;4.95;1.70;;;11.40;88.90;;;;;;4053251;29;20059;-79
2023/11/14 07:00:23;;;;;;;5.05;1.20;;;11.50;89.00;;;;;;4053280;29;20115;-78
2023/11/14 07:02:25;;;;;;;4.50;1.20;;;11.40;88.30;;;;;;4053136;29;20408;-79
2023/11/14 07:04:27;;;;;;;4.55;1.38;;;11.40;88.30;;;;;;4054132;29;20400;-78
2023/11/14 07:06:30;;;;;;;5.80;1.50;;;11.50;88.30;;;;;;4053301;29;20049;-80
2023/11/14 07:08:33;;;;;;;6.63;1.17;;;11.40;88.00;;;;;;4053704;29;20463;-79
2023/11/14 07:10:34;;;;;;;4.85;1.15;;;11.50;87.80;;;;;;4053604;29;20075;-82
2023/11/14 07:12:36;;;;;;;3.70;0.95;;;11.50;87.60;;;;;;4053294;29;20090;-78
2023/11/14 07:14:38;;;;;;;4.13;1.10;;;11.50;86.90;;;;;;4053069;29;20057;-79
2023/11/14 07:16:41;;;;;;;3.05;1.15;;;11.40;86.60;;;;;;4052999;29;20140;-79
2023/11/14 07:18:43;;;;;;;5.10;1.17;;;11.50;86.80;;;;;;4053125;29;20456;-80
2023/11/14 07:20:47;;;;;;;2.80;1.02;;;11.40;86.00;;;;;;4053185;29;20052;-79
2023/11/14 07:22:50;;;;;;;6.93;1.45;;;11.50;86.30;;;;;;4053027;29;20052;-80
2023/11/14 07:24:53;;;;;;;3.85;1.08;;;11.50;86.10;;;;;;4053389;29;20051;-79
2023/11/14 07:26:55;;;;;;;6.60;1.40;;;11.50;85.90;;;;;;4053218;29;20059;-77
2023/11/14 07:28:57;;;;;;;6.07;1.50;;;11.50;85.50;;;;;;4053171;29;20048;-78
2023/11/14 07:30:58;;;;;;;5.75;1.60;;;11.50;85.80;;;;;;4052978;29;20048;-79
2023/11/14 07:33:01;;;;;;;6.38;1.48;;;11.50;85.70;;;;;;4053002;29;20044;-80
2023/11/14 07:35:04;;;;;;;5.00;1.27;;;11.50;85.00;;;;;;4053612;29;20064;-78
2023/11/14 07:37:05;;;;;;;5.38;1.60;;;11.50;84.80;;;;;;4053179;29;20391;-79
2023/11/14 07:39:08;;;;;;;6.40;1.48;;;11.50;84.60;;;;;;4053169;29;20051;-80
2023/11/14 07:41:10;;;;;;;5.72;1.50;;;11.60;84.30;;;;;;4053261;29;20120;-79
2023/11/14 07:43:12;;;;;;;3.55;1.27;;;11.60;84.30;;;;;;4053408;29;20451;-79
2023/11/14 07:45:14;;;;;;;6.38;1.60;;;11.60;83.90;;;;;;4053032;29;20080;-80
2023/11/14 07:47:15;;;;;;;2.63;0.80;;;11.60;83.90;;;;;;4052925;29;20053;-79
2023/11/14 07:49:17;;;;;;;4.25;1.10;;;11.60;83.40;;;;;;4053315;29;20091;-78
2023/11/14 07:51:20;;;;;;;3.92;1.10;;;11.60;83.50;;;;;;4054102;29;20115;-77
2023/11/14 07:53:22;;;;;;;3.45;1.02;;;11.70;83.60;;;;;;4054054;29;20155;-79
2023/11/14 07:55:25;;;;;;;3.60;1.15;;;11.70;83.00;;;;;;4053361;29;20073;-77
2023/11/14 07:57:26;;;;;;;5.05;1.08;;;11.70;82.90;;;;;;4055297;29;20451;-78
2023/11/14 07:59:30;;;;;;;4.13;1.10;;;11.70;82.70;;;;;;4056046;29;20049;-75
2023/11/14 08:01:32;;;;;;;4.40;1.00;;;11.70;82.10;;;;;;4055994;29;20091;-77
2023/11/14 08:03:33;;;;;;;2.72;1.00;;;11.70;82.60;;;;;;4055906;29;20139;-78
2023/11/14 08:05:40;;;;;;;6.32;1.10;;;11.70;82.20;;;;;;4056018;29;20417;-76
2023/11/14 08:07:42;;;;;;;5.10;1.20;;;11.70;82.20;;;;;;4055992;29;20052;-79
2023/11/14 08:09:43;;;;;;;4.03;1.00;;;11.70;81.80;;;;;;4056004;29;20344;-78
2023/11/14 08:11:46;;;;;;;3.30;1.00;;;11.70;81.00;;;;;;4055426;29;20104;-81
2023/11/14 08:13:48;;;;;;;2.95;1.00;;;11.70;80.70;;;;;;4055760;29;20085;-78
2023/11/14 08:15:48;;;;;;;3.47;0.80;;;11.70;79.90;;;;;;4055650;29;20578;-80
2023/11/14 08:17:51;;;;;;;2.35;0.65;;;11.70;78.90;;;;;;4055542;29;20060;-79
2023/11/14 08:19:52;;;;;;;4.40;1.25;;;11.60;78.60;;;;;;4055961;29;20048;-75
2023/11/14 08:21:55;;;;;;;3.92;0.88;;;11.60;78.50;;;;;;4055820;29;20510;-78
2023/11/14 08:23:58;;;;;;;4.88;1.08;;;11.70;78.30;;;;;;4055778;29;20056;-78
2023/11/14 08:26:00;;;;;;;2.50;0.77;;;11.70;78.90;;;;;;4055369;29;20055;-80
2023/11/14 08:28:03;;;;;;;4.75;0.90;;;11.70;78.70;;;;;;4055699;29;20120;-79
2023/11/14 08:30:07;;;;;;;4.00;0.80;;;11.70;78.70;;;;;;4055346;29;20053;-79
2023/11/14 08:32:09;;;;;;;3.97;1.05;;;11.70;78.90;;;;;;4056462;29;20048;-79
2023/11/14 08:34:11;;;;;;;2.75;0.80;;;11.70;79.10;;;;;;4055687;29;20080;-79
2023/11/14 08:36:14;;;;;;;4.65;1.00;;;11.70;79.10;;;;;;4055796;29;20070;-78
2023/11/14 08:38:16;;;;;;;6.05;0.93;;;11.80;79.40;;;;;;4055608;29;20143;-78
2023/11/14 08:40:18;;;;;;;3.55;1.00;;;11.70;79.30;;;;;;4055458;29;20451;-77
2023/11/14 08:42:19;;;;;;;4.53;0.88;;;11.70;80.00;;;;;;4055319;29;20060;-79
2023/11/14 08:44:23;;;;;;;3.20;0.90;;;11.70;78.80;;;;;;4055150;29;20068;-77
2023/11/14 08:46:26;;;;;;;4.38;1.10;;;11.80;78.90;;;;;;4055113;29;20057;-80
2023/11/14 08:48:27;;;;;;;3.05;0.80;;;11.80;78.90;;;;;;4055260;29;20052;-79
2023/11/14 08:50:29;;;;;;;3.90;1.00;;;11.80;79.20;;;;;;4055333;29;20502;-80
2023/11/14 08:52:31;;;;;;;3.58;1.00;;;11.80;79.00;;;;;;4055153;29;20052;-80
2023/11/14 08:54:33;;;;;;;4.22;1.45;;;11.80;79.10;;;;;;4055300;29;20125;-80
2023/11/14 08:56:35;;;;;;;5.45;0.90;;;11.80;79.30;;;;;;4054904;29;20056;-79
2023/11/14 08:58:37;;;;;;;2.92;0.98;;;11.80;79.00;;;;;;4055132;29;20120;-79
2023/11/14 09:00:41;;;;;;;2.63;0.88;;;11.80;78.30;;;;;;4055084;29;20439;-79
2023/11/14 09:02:43;;;;;;;3.83;1.00;;;11.90;77.80;;;;;;4055307;29;20056;-80
2023/11/14 09:04:44;;;;;;;3.38;0.93;;;11.90;77.10;;;;;;4055140;29;20052;-80
2023/11/14 09:06:46;;;;;;;6.10;2.55;;;11.90;77.40;;;;;;4054840;29;20053;-80
2023/11/14 09:08:48;;;;;;;4.88;1.35;;;11.90;77.90;;;;;;4054858;29;20053;-80
2023/11/14 09:10:50;;;;;;;4.38;1.02;;;12.00;78.10;;;;;;4054994;29;20115;-79
2023/11/14 09:12:51;;;;;;;3.38;1.08;;;12.00;76.70;;;;;;4039812;29;20060;-79
2023/11/14 09:14:53;;;;;;;4.10;1.00;;;12.00;76.40;;;;;;4037257;29;20057;-79
2023/11/14 09:16:56;;;;;;;3.78;0.98;;;12.00;75.90;;;;;;4037540;29;20445;-79
2023/11/14 09:18:59;;;;;;;4.82;1.10;;;12.00;75.70;;;;;;4037531;29;20136;-79
2023/11/14 09:21:00;;;;;;;4.95;1.00;;;12.00;75.80;;;;;;4037316;29;20136;-79
2023/11/14 09:23:04;;;;;;;6.03;1.77;;;12.00;74.70;;;;;;4037307;29;20075;-80
2023/11/14 09:25:06;;;;;;;3.28;0.93;;;12.00;74.70;;;;;;4037155;29;20063;-81
2023/11/14 09:27:08;;;;;;;3.53;1.00;;;12.10;74.00;;;;;;4037350;29;20049;-79
2023/11/14 09:29:10;;;;;;;4.93;1.00;;;12.00;72.60;;;;;;4037223;29;20088;-80
2023/11/14 09:31:12;;;;;;;5.30;1.00;;;12.10;71.20;;;;;;4037080;29;20045;-80
2023/11/14 09:33:16;;;;;;;3.60;0.90;;;12.10;70.60;;;;;;4035765;29;20085;-80
2023/11/14 09:35:18;;;;;;;4.13;0.93;;;12.10;70.40;;;;;;4036817;29;20467;-81
2023/11/14 09:37:20;;;;;;;4.78;1.10;;;12.10;70.10;;;;;;4037085;29;20113;-82
2023/11/14 09:39:22;;;;;;;4.07;1.20;;;12.20;69.80;;;;;;4037327;29;20053;-82
2023/11/14 09:41:24;;;;;;;5.72;1.25;;;12.20;70.10;;;;;;4037351;29;20053;-84
2023/11/14 09:43:25;;;;;;;6.28;1.10;;;12.20;69.40;;;;;;4037157;29;20070;-83
2023/11/14 09:45:27;;;;;;;5.20;1.15;;;12.20;68.20;;;;;;4036963;29;20494;-85
2023/11/14 09:47:30;;;;;;;3.60;1.23;;;12.20;68.10;;;;;;4036954;29;20136;-81
2023/11/14 09:49:34;;;;;;;5.13;1.05;;;12.20;67.60;;;;;;4036893;29;20053;-81
2023/11/14 09:51:38;;;;;;;3.53;1.00;;;12.20;66.50;;;;;;4037168;29;20057;-80
2023/11/14 09:53:41;;;;;;;4.38;1.00;;;12.20;64.80;;;;;;4037279;29;20063;-82
2023/11/14 09:55:45;;;;;;;6.57;1.10;;;12.20;65.40;;;;;;4037176;29;20053;-78
2023/11/14 09:57:47;;;;;;;3.42;1.17;;;12.30;65.40;;;;;;4052490;29;20053;-80
2023/11/14 09:59:49;;;;;;;5.10;1.20;;;12.30;65.70;;;;;;4052532;29;20116;-79
2023/11/14 10:01:51;;;;;;;6.10;1.08;;;12.30;65.50;;;;;;4050689;29;20053;-80
2023/11/14 10:03:53;;;;;;;4.60;0.95;;;12.30;65.10;;;;;;4051190;29;20474;-80
2023/11/14 10:05:56;;;;;;;4.20;1.02;;;12.40;66.10;;;;;;4051803;29;20056;-79
2023/11/14 10:07:58;;;;;;;4.75;1.20;;;12.40;64.40;;;;;;4052042;29;20059;-80
2023/11/14 10:10:01;;;;;;;4.88;1.08;;;12.40;65.30;;;;;;4052348;29;20676;-80
2023/11/14 10:12:04;;;;;;;3.88;1.13;;;12.40;64.90;;;;;;4051968;29;20056;-79
2023/11/14 10:14:06;;;;;;;5.55;1.27;;;12.40;65.70;;;;;;4051890;29;20422;-79
2023/11/14 10:16:19;;;;;;;4.15;0.98;;;12.40;64.70;;;;;;4052547;29;20053;-80
2023/11/14 10:18:30;;;;;;;5.40;1.02;;;12.50;64.40;;;;;;4051973;29;20099;-80
2023/11/14 10:20:38;;;;;;;5.13;1.10;;;12.50;65.70;;;;;;4051502;29;20095;-81
2023/11/14 10:22:49;;;;;;;4.07;1.08;;;12.50;65.90;;;;;;4051817;29;20060;-82
2023/11/14 10:24:52;;;;;;;4.72;0.93;;;12.50;64.00;;;;;;4051614;29;20048;-81
2023/11/14 10:26:55;;;;;;;3.95;1.23;;;12.50;63.60;;;;;;4051655;29;20127;-81
2023/11/14 10:29:00;;;;;;;4.07;0.90;;;12.60;64.30;;;;;;4051916;29;20068;-83
2023/11/14 10:31:02;;;;;;;3.13;1.00;;;12.60;64.90;;;;;;4052812;29;20482;-81
2023/11/14 10:33:04;;;;;;;4.45;0.90;;;12.50;64.30;;;;;;4052103;29;20395;-85
2023/11/14 10:35:17;;;;;;;4.38;0.98;;;12.50;64.60;;;;;;4052079;29;20056;-83
2023/11/14 10:37:34;;;;;;;4.40;0.85;;;12.50;64.80;;;;;;4051880;29;20052;-82
2023/11/14 10:39:53;;;;;;;4.85;1.05;;;12.50;64.90;;;;;;4051871;29;20053;-80
2023/11/14 10:41:57;;;;;;;3.47;1.20;;;12.50;64.60;;;;;;4051676;29;20056;-79
2023/11/14 10:44:06;;;;;;;5.28;1.10;;;12.60;64.70;;;;;;4051567;29;20565;-81
2023/11/14 10:46:13;;;;;;;4.95;1.08;;;12.50;64.40;;;;;;4051378;29;20048;-81
2023/11/14 10:48:22;;;;;;;3.80;1.00;;;12.50;64.40;;;;;;4051722;29;20052;-82
2023/11/14 10:50:31;;;;;;;4.25;1.00;;;12.60;65.10;;;;;;4051393;29;20060;-82
2023/11/14 10:52:35;;;;;;;4.43;0.93;;;12.50;64.80;;;;;;4051015;29;20402;-80
2023/11/14 10:54:39;;;;;;;4.38;0.90;;;12.60;64.40;;;;;;4052058;29;20112;-85
2023/11/14 10:56:40;;;;;;;5.25;0.98;;;12.50;64.80;;;;;;4051241;29;20064;-87
2023/11/14 10:58:42;;;;;;;2.45;0.80;;;12.50;64.60;;;;;;4048673;29;20084;-87
2023/11/14 11:00:44;;;;;;;2.42;0.70;;;12.60;65.50;;;;;;4038060;29;20401;-87
2023/11/14 11:02:45;;;;;;;3.55;1.02;;;12.60;64.20;;;;;;4038502;29;20144;-88
2023/11/14 11:04:48;;;;;;;5.07;0.80;;;12.50;64.60;;;;;;4036802;29;20145;-86
2023/11/14 11:06:50;;;;;;;5.00;1.05;;;12.60;64.40;;;;;;4036616;29;20057;-87
2023/11/14 11:08:52;;;;;;;5.88;1.27;;;12.60;64.30;;;;;;4037610;29;20487;-87
2023/11/14 11:10:56;;;;;;;3.45;0.90;;;12.60;63.80;;;;;;4038037;29;20057;-87
2023/11/14 11:12:58;;;;;;;5.10;0.98;;;12.60;64.90;;;;;;4036733;29;20116;-87
2023/11/14 11:15:00;;;;;;;4.68;1.00;;;12.60;64.50;;;;;;4037737;29;20051;-88
2023/11/14 11:17:03;;;;;;;8.18;1.20;;;12.60;64.20;;;;;;4037553;29;20057;-88
2023/11/14 11:19:04;;;;;;;3.80;0.80;;;12.60;63.60;;;;;;4037298;29;20061;-87
2023/11/14 11:21:10;;;;;;;3.45;0.88;;;12.60;63.70;;;;;;4037096;29;20396;-87
2023/11/14 11:23:13;;;;;;;4.78;0.90;;;12.60;63.40;;;;;;4035884;29;20060;-88
2023/11/14 11:25:21;;;;;;;3.17;0.95;;;12.70;63.40;;;;;;4036920;29;20053;-86
2023/11/14 11:27:25;;;;;;;5.45;1.00;;;12.70;63.20;;;;;;4036470;29;20057;-87
2023/11/14 11:29:49;;;;;;;4.85;1.00;;;12.70;62.90;;;;;;4036130;29;20587;-88
2023/11/14 11:32:22;;;;;;;5.13;1.13;;;12.70;63.70;;;;;;4040321;29;20049;-87
2023/11/14 11:34:28;;;;;;;4.55;1.10;;;12.70;63.00;;;;;;4040747;29;20063;-87
2023/11/14 11:36:34;;;;;;;4.97;1.20;;;12.70;62.80;;;;;;4039625;29;20099;-88
2023/11/14 11:38:35;;;;;;;5.30;1.30;;;12.70;63.00;;;;;;4039933;29;20156;-88
2023/11/14 11:41:11;;;;;;;3.42;1.00;;;12.80;62.80;;;;;;4041343;29;20057;-86
2023/11/14 11:43:19;;;;;;;6.20;1.20;;;12.80;63.10;;;;;;4040710;29;20049;-88
2023/11/14 11:45:33;;;;;;;5.85;0.93;;;12.80;63.40;;;;;;4041051;29;20605;-86
2023/11/14 11:47:36;;;;;;;5.15;1.08;;;12.80;63.00;;;;;;4041337;29;20096;-87
2023/11/14 11:49:39;;;;;;;7.93;1.52;;;12.80;63.20;;;;;;4041328;29;20181;-87
2023/11/14 11:51:43;;;;;;;7.32;1.20;;;12.80;63.70;;;;;;4039915;29;20460;-90
2023/11/14 11:53:45;;;;;;;5.18;1.20;;;12.80;63.40;;;;;;4054803;29;20064;-88
2023/11/14 11:55:47;;;;;;;6.70;1.30;;;12.80;63.00;;;;;;4041240;29;20067;-88
2023/11/14 11:58:02;;;;;;;7.90;1.33;;;12.80;62.80;;;;;;4054889;29;20045;-86
2023/11/14 12:00:21;;;;;;;9.05;1.38;;;12.70;63.00;;;;;;4055520;29;20052;-85
2023/11/14 12:02:23;;;;;;;8.15;1.85;;;12.80;63.20;;;;;;4055748;29;20060;-88
2023/11/14 12:04:27;;;;;;;5.53;1.30;;;12.80;63.20;;;;;;4052367;29;20462;-88
2023/11/14 12:06:30;;;;;;;8.98;1.63;;;12.70;63.10;;;;;;4054922;29;20052;-86
2023/11/14 12:08:33;;;;;;;4.35;1.27;;;12.70;63.40;;;;;;4053379;29;20075;-87
2023/11/14 12:10:35;;;;;;;4.57;1.20;;;12.80;63.40;;;;;;4053772;29;20122;-85
2023/11/14 12:12:40;;;;;;;5.93;1.35;;;12.70;63.20;;;;;;4069172;29;20055;-89
2023/11/14 12:14:43;;;;;;;6.67;1.50;;;12.70;63.10;;;;;;4056860;29;20059;-86
2023/11/14 12:16:47;;;;;;;4.78;0.90;;;12.70;63.20;;;;;;4055937;29;20368;-87
2023/11/14 12:18:50;;;;;;;3.30;1.00;;;12.70;63.20;;;;;;4054824;29;20048;-87
2023/11/14 12:20:51;;;;;;;7.22;1.58;;;12.70;63.40;;;;;;4053969;29;20052;-86
2023/11/14 12:22:53;;;;;;;6.15;1.15;;;12.70;63.50;;;;;;4054489;29;20053;-87
2023/11/14 12:24:54;;;;;;;6.80;1.20;;;12.70;63.80;;;;;;4054754;29;20056;-88
2023/11/14 12:26:57;;;;;;;7.13;1.23;;;12.70;63.60;;;;;;4069506;29;20059;-88
2023/11/14 12:28:59;;;;;;;6.70;1.20;;;12.80;63.40;;;;;;4055031;29;20059;-88
2023/11/14 12:31:04;;;;;;;8.55;1.60;;;12.70;63.40;;;;;;4055073;29;20112;-89
2023/11/14 12:33:09;;;;;;;4.27;1.10;;;12.80;63.40;;;;;;4055968;29;20052;-89
2023/11/14 12:35:10;;;;;;;3.35;0.90;;;12.80;63.20;;;;;;4079556;29;20312;-85
2023/11/14 12:37:16;;;;;;;8.98;3.40;;;12.70;63.20;;;;;;4064406;29;20052;-88
2023/11/14 12:39:19;;;;;;;7.60;2.33;;;12.80;63.40;;;;;;4062616;29;20052;-88
2023/11/14 12:41:27;;;;;;;5.50;1.48;;;12.80;63.90;;;;;;4054483;29;20057;-89
2023/11/14 12:43:28;;;;;;;3.85;1.00;;;12.80;63.90;;;;;;4054341;29;20059;-87
2023/11/14 12:45:30;;;;;;;5.22;1.33;;;12.80;63.90;;;;;;4054347;29;20060;-86
2023/11/14 12:47:34;;;;;;;11.50;5.32;;;12.70;63.90;;;;;;4055228;29;20056;-90
2023/11/14 12:49:48;;;;;;;18.23;9.13;;;12.80;64.20;;;;;;4055585;29;20068;-86
2023/11/14 12:51:53;;;;;;;10.32;4.55;;;12.80;64.10;;;;;;4055428;29;20060;-89
2023/11/14 12:53:54;;;;;;;6.22;1.77;;;12.80;64.30;;;;;;4055454;29;20060;-88
2023/11/14 12:55:56;;;;;;;5.90;1.30;;;12.80;64.30;;;;;;4053845;29;20057;-88
2023/11/14 12:57:57;;;;;;;5.60;1.20;;;12.80;64.80;;;;;;4055238;29;20480;-87
2023/11/14 13:00:00;;;;;;;6.30;1.33;;;12.80;64.60;;;;;;4055432;29;20059;-90
2023/11/14 13:02:02;;;;;;;6.28;1.30;;;12.80;64.70;;;;;;4055269;29;20131;-89
2023/11/14 13:04:07;;;;;;;6.57;1.35;;;12.70;64.80;;;;;;4054923;29;20080;-90
2023/11/14 13:06:08;;;;;;;6.00;1.13;;;12.70;64.60;;;;;;4055251;29;20059;-88
2023/11/14 13:08:10;;;;;;;6.78;1.50;;;12.70;65.00;;;;;;4055572;29;20077;-90
2023/11/14 13:10:12;;;;;;;5.22;1.20;;;12.70;65.20;;;;;;4054684;29;20067;-88
2023/11/14 13:12:14;;;;;;;8.00;1.45;;;12.70;65.30;;;;;;4055436;29;20052;-89
2023/11/14 13:14:16;;;;;;;6.50;1.40;;;12.70;65.10;;;;;;4055270;29;20060;-88
2023/11/14 13:16:18;;;;;;;5.88;1.50;;;12.70;65.10;;;;;;4054861;29;20064;-89
2023/11/14 13:18:20;;;;;;;7.97;1.52;;;12.70;64.70;;;;;;4055007;29;20143;-89
2023/11/14 13:20:22;;;;;;;5.25;1.23;;;12.70;64.70;;;;;;4053990;29;20056;-89
2023/11/14 13:22:24;;;;;;;4.95;1.52;;;12.70;64.70;;;;;;4055599;29;20057;-89
2023/11/14 13:24:26;;;;;;;6.47;1.30;;;12.70;64.20;;;;;;4054964;29;20060;-91
2023/11/14 13:26:29;;;;;;;4.90;1.20;;;12.70;64.00;;;;;;4056097;29;20064;-91
2023/11/14 13:28:32;;;;;;;5.65;1.50;;;12.80;64.60;;;;;;4055986;29;20151;-88
2023/11/14 13:30:34;;;;;;;4.93;1.15;;;12.70;64.40;;;;;;4055810;29;20052;-89
2023/11/14 13:32:36;;;;;;;6.85;1.48;;;12.70;64.20;;;;;;4055064;29;20059;-90
2023/11/14 13:34:38;;;;;;;8.30;1.48;;;12.70;64.30;;;;;;4055021;29;20061;-90
2023/11/14 13:36:43;;;;;;;9.02;3.75;;;12.70;63.70;;;;;;4055205;29;20108;-90
2023/11/14 13:38:44;;;;;;;8.57;1.65;;;12.70;64.00;;;;;;4056012;29;20410;-89
2023/11/14 13:40:48;;;;;;;10.45;4.68;;;12.70;64.40;;;;;;4040177;29;20136;-90
2023/11/14 13:42:50;;;;;;;7.03;1.50;;;12.70;64.50;;;;;;4056026;29;20478;-90
2023/11/14 13:44:52;;;;;;;7.65;1.17;;;12.70;64.10;;;;;;4056006;29;20327;-90
2023/11/14 13:46:55;;;;;;;4.28;1.00;;;12.70;64.30;;;;;;4055479;29;20060;-91
2023/11/14 13:48:57;;;;;;;4.88;1.30;;;12.70;64.40;;;;;;4055369;29;20052;-90
2023/11/14 13:50:59;;;;;;;4.95;1.23;;;12.70;64.50;;;;;;4056678;29;20059;-90
2023/11/14 13:53:04;;;;;;;6.13;1.13;;;12.60;64.30;;;;;;4059932;29;20052;-89
2023/11/14 13:55:07;;;;;;;4.57;1.33;;;12.60;64.00;;;;;;4058286;29;20103;-89
2023/11/14 13:57:11;;;;;;;5.10;1.30;;;12.70;64.00;;;;;;4057261;29;20056;-90
2023/11/14 13:59:14;;;;;;;4.00;1.02;;;12.60;64.00;;;;;;4054692;29;20411;-87
2023/11/14 14:01:16;;;;;;;6.35;1.20;;;12.60;63.90;;;;;;4054958;29;20056;-88
2023/11/14 14:03:19;;;;;;;3.97;1.02;;;12.60;64.20;;;;;;4054961;29;20466;-90
2023/11/14 14:05:20;;;;;;;4.75;1.20;;;12.60;64.80;;;;;;4052999;29;20585;-88
2023/11/14 14:07:22;;;;;;;4.95;0.93;;;12.50;64.90;;;;;;4054466;29;20056;-87
2023/11/14 14:09:25;;;;;;;5.20;1.10;;;12.50;65.10;;;;;;4057038;29;20128;-90
2023/11/14 14:11:27;;;;;;;6.03;1.13;;;12.50;65.30;;;;;;4040284;29;20107;-90
2023/11/14 14:13:29;;;;;;;5.28;1.10;;;12.50;65.30;;;;;;4038505;29;20077;-89
2023/11/14 14:15:31;;;;;;;6.40;1.38;;;12.50;65.50;;;;;;4055490;29;20077;-89
2023/11/14 14:17:33;;;;;;;5.28;1.15;;;12.40;65.60;;;;;;4057183;29;20053;-89
2023/11/14 14:19:36;;;;;;;4.63;1.23;;;12.40;66.00;;;;;;4054278;29;20075;-90
2023/11/14 14:21:40;;;;;;;4.97;0.77;;;12.40;66.20;;;;;;4057586;29;20061;-90
2023/11/14 14:23:44;;;;;;;4.35;1.08;;;12.40;66.10;;;;;;4042336;29;20049;-89
2023/11/14 14:25:46;;;;;;;23.63;10.43;;;12.30;66.50;;;;;;4056272;29;20116;-90
2023/11/14 14:27:48;;;;;;;20.23;8.23;;;12.40;66.70;;;;;;4055219;29;20503;-85
2023/11/14 14:29:50;;;;;;;7.15;1.70;;;12.30;66.90;;;;;;4052808;29;20144;-87
2023/11/14 14:31:51;;;;;;;4.00;0.77;;;12.30;67.00;;;;;;4051692;29;20064;-86
2023/11/14 14:33:53;;;;;;;6.30;1.10;;;12.30;67.20;;;;;;4052921;29;20427;-86
2023/11/14 14:35:55;;;;;;;4.50;1.10;;;12.30;67.30;;;;;;4052691;29;20060;-89
2023/11/14 14:37:57;;;;;;;2.63;0.77;;;12.30;67.50;;;;;;4052756;29;20060;-82
2023/11/14 14:39:58;;;;;;;5.57;1.05;;;12.20;67.50;;;;;;4052628;29;20053;-87
2023/11/14 14:42:01;;;;;;;5.03;1.10;;;12.20;67.90;;;;;;4053300;29;20509;-85
2023/11/14 14:44:05;;;;;;;4.70;0.82;;;12.20;68.10;;;;;;4052747;29;20135;-88
2023/11/14 14:46:09;;;;;;;4.65;0.82;;;12.10;68.40;;;;;;4052738;29;20096;-88
2023/11/14 14:48:10;;;;;;;3.80;0.85;;;12.10;68.60;;;;;;4053171;29;20048;-86
2023/11/14 14:50:12;;;;;;;3.60;0.85;;;12.10;68.90;;;;;;4053887;29;20120;-87
2023/11/14 14:52:14;;;;;;;4.40;0.90;;;12.10;69.30;;;;;;4057540;29;20103;-87
2023/11/14 14:54:18;;;;;;;3.95;0.88;;;12.10;70.00;;;;;;4053269;29;20119;-88
2023/11/14 14:56:19;;;;;;;5.32;0.93;;;12.00;69.70;;;;;;4052836;29;20056;-88
2023/11/14 14:58:23;;;;;;;3.35;0.77;;;12.00;70.10;;;;;;4053929;29;20052;-89
2023/11/14 15:00:25;;;;;;;3.70;0.70;;;12.00;70.10;;;;;;4052320;29;20053;-88
2023/11/14 15:02:27;;;;;;;4.50;1.00;;;12.00;69.90;;;;;;4054581;29;20052;-88
2023/11/14 15:04:29;;;;;;;4.55;0.82;;;12.00;70.00;;;;;;4052426;29;20049;-86
2023/11/14 15:06:30;;;;;;;3.92;1.05;;;11.90;69.80;;;;;;4068460;29;20122;-87
2023/11/14 15:08:33;;;;;;;3.03;0.90;;;11.90;70.00;;;;;;4053536;29;20060;-88
2023/11/14 15:10:35;;;;;;;3.40;0.80;;;11.90;69.90;;;;;;4054753;29;20056;-88
2023/11/14 15:12:37;;;;;;;2.65;0.73;;;11.80;70.10;;;;;;4054547;29;20498;-88
2023/11/14 15:14:40;;;;;;;3.88;1.05;;;11.80;70.20;;;;;;4055008;29;20067;-87
2023/11/14 15:16:46;;;;;;;4.35;1.00;;;11.80;70.50;;;;;;4053082;29;20068;-87
2023/11/14 15:18:47;;;;;;;2.58;0.80;;;11.80;70.40;;;;;;4057834;29;20058;-89
2023/11/14 15:20:50;;;;;;;2.92;0.70;;;11.70;70.30;;;;;;4058170;29;20068;-89
2023/11/14 15:22:52;;;;;;;2.63;0.73;;;11.70;70.40;;;;;;4055016;29;20582;-88
2023/11/14 15:24:55;;;;;;;2.15;0.65;;;11.70;70.80;;;;;;4057837;29;20052;-89
2023/11/14 15:26:57;;;;;;;2.47;0.70;;;11.70;70.70;;;;;;4054053;29;20155;-86
2023/11/14 15:29:00;;;;;;;2.42;0.68;;;11.70;70.40;;;;;;4060128;29;20108;-89
2023/11/14 15:31:04;;;;;;;3.90;1.17;;;11.60;70.50;;;;;;4056114;29;20078;-88
2023/11/14 15:33:06;;;;;;;7.75;3.95;;;11.60;70.50;;;;;;4054699;29;20067;-86
2023/11/14 15:35:09;;;;;;;2.85;1.10;;;11.70;70.70;;;;;;4053045;29;20059;-86
2023/11/14 15:37:11;;;;;;;3.92;0.80;;;11.60;70.50;;;;;;4052736;29;20064;-88
2023/11/14 15:39:13;;;;;;;2.78;0.52;;;11.60;70.10;;;;;;4052400;29;20053;-85
2023/11/14 15:41:17;;;;;;;1.70;0.52;;;11.60;70.20;;;;;;4051347;29;20078;-88
2023/11/14 15:43:18;;;;;;;2.65;0.40;;;11.60;69.70;;;;;;4066351;29;20056;-89
2023/11/14 15:45:20;;;;;;;2.70;0.60;;;11.60;69.40;;;;;;4051729;29;20075;-89
2023/11/14 15:47:24;;;;;;;1.30;0.40;;;11.60;69.40;;;;;;4051715;29;20079;-84
2023/11/14 15:49:27;;;;;;;1.55;0.40;;;11.60;69.40;;;;;;4051912;29;20569;-84
2023/11/14 15:51:29;;;;;;;1.52;0.40;;;11.60;69.50;;;;;;4051951;29;20477;-85
2023/11/14 15:53:31;;;;;;;1.50;0.47;;;11.60;69.30;;;;;;4052520;29;20066;-85
2023/11/14 15:55:31;;;;;;;1.58;0.50;;;11.50;68.80;;;;;;4051892;29;20479;-86
2023/11/14 15:57:34;;;;;;;1.15;0.32;;;11.60;69.00;;;;;;4051837;29;20053;-87
2023/11/14 15:59:35;;;;;;;2.55;0.50;;;11.60;68.60;;;;;;4052460;29;20083;-88
2023/11/14 16:01:37;;;;;;;0.95;0.40;;;11.60;68.90;;;;;;4052148;29;20060;-88
2023/11/14 16:03:39;;;;;;;2.25;0.68;;;11.60;68.80;;;;;;4053203;29;20052;-87
2023/11/14 16:05:41;;;;;;;2.13;0.50;;;11.50;68.40;;;;;;4051268;29;20143;-89
2023/11/14 16:07:44;;;;;;;2.47;0.40;;;11.60;68.40;;;;;;4055265;29;20604;-89
2023/11/14 16:09:46;;;;;;;1.77;0.40;;;11.60;68.20;;;;;;4051249;29;21152;-85
2023/11/14 16:11:48;;;;;;;1.38;0.40;;;11.60;68.20;;;;;;4052773;29;20053;-88
2023/11/14 16:13:50;;;;;;;0.82;0.40;;;11.60;68.30;;;;;;4052246;29;20845;-85
2023/11/14 16:15:50;;;;;;;4.28;1.40;;;11.60;67.90;;;;;;4051254;29;20544;-84
2023/11/14 16:17:52;;;;;;;5.32;2.65;;;11.60;68.00;;;;;;4053348;29;20084;-85
2023/11/14 16:19:56;;;;;;;4.22;1.90;;;11.60;67.90;;;;;;4054192;29;20052;-84
2023/11/14 16:22:00;;;;;;;2.63;0.50;;;11.60;67.80;;;;;;4054494;29;20061;-85
2023/11/14 16:24:04;;;;;;;2.55;0.70;;;11.70;67.80;;;;;;4052147;29;20662;-84
2023/11/14 16:26:07;;;;;;;1.02;0.40;;;11.60;67.30;;;;;;4054026;29;20052;-83
2023/11/14 16:28:08;;;;;;;1.73;0.70;;;11.60;67.50;;;;;;4054710;29;20431;-87
2023/11/14 16:30:11;;;;;;;3.28;0.70;;;11.70;67.50;;;;;;4054833;29;20060;-88
2023/11/14 16:32:15;;;;;;;1.02;0.30;;;11.70;67.30;;;;;;4053534;29;20049;-85
2023/11/14 16:34:17;;;;;;;1.88;0.60;;;11.70;67.50;;;;;;4069332;29;20121;-88
2023/11/14 16:36:21;;;;;;;3.22;1.10;;;11.70;67.50;;;;;;4056770;29;20392;-88
2023/11/14 16:38:23;;;;;;;3.85;1.10;;;11.70;67.70;;;;;;4056980;29;20479;-87
2023/11/14 16:40:24;;;;;;;3.25;1.10;;;11.70;67.80;;;;;;4071149;29;20431;-85